Klazienaveen, Netherlands
Current Conditions -  °F | °C
As of 9:25 AM on Tuesday 21 Oct 2014 (Local Time) from EHGG Reporting Station
Broken Clouds Broken Clouds  
Wind Chill: 54°   Ceiling: 900
Heat Index: 54°   Visibility: 6mi
Dew Point: 52°   Wind: 17mph
Humidity: 94%   Direction: 190°S
Pressure: 29.59"   Gusts: NA
Location:  52.72°N, 6.99°E
Report Text: EHGG 210725Z AUTO 19015KT 160V220 9999 FEW006 SCT008 BKN009FEW015CB 12/11 Q1002 TEMPO 5000 -RA -SHRA FEW025CB
Loading
Personal Weather Stations






























Interactive Weather Map
Tropical Storm Tracking
New forecast layout! Learn more

10-Day Weather Forecast

Advertisements
Track Severe Weather on mobile